New York, New York
Traffic Map
Current Weather Conditions
New York, New York
Clear
Clear
16°
Feels Like: 16°
Wind Chill: 16° Ceiling: Unl
Heat Index: 16° Visibility: 10mi
Dew Point: 12° Wind: 6mph
Humidity: 75% Direction: 310° (NW)
Pressure: 29.84in Gusts: 0mph
Raw Report DataKNYC 270651Z AUTO 31005KT 10SM CLR 16/12 A2984 RMK AO2 SLP097 T01610117 $
Traffic Incident Summary
Active as of:
Severity:
Category:
InformationThere was an issue retrieving the traffic information for this location. Please try a different location or try again shortly.
Advertisements
Track Severe Weather on mobile